createdAt,value
2018-04-14T00:00:20.312Z,10.60
2018-04-14T00:02:47.823Z,10.60
2018-04-14T00:05:15.311Z,10.60
2018-04-14T00:07:42.813Z,10.70
2018-04-14T00:10:10.315Z,10.70
2018-04-14T00:12:37.793Z,10.70
2018-04-14T00:15:05.301Z,10.60
2018-04-14T00:17:32.801Z,10.60
2018-04-14T00:20:00.301Z,10.50
2018-04-14T00:22:28.550Z,10.60
2018-04-14T00:24:56.039Z,10.50
2018-04-14T00:27:24.298Z,10.50
2018-04-14T00:29:51.799Z,10.50
2018-04-14T00:32:19.293Z,10.40
2018-04-14T00:34:46.789Z,10.40
2018-04-14T00:37:14.288Z,10.40
2018-04-14T00:39:41.850Z,10.30
2018-04-14T00:42:09.287Z,10.10
2018-04-14T00:44:36.761Z,10.00
2018-04-14T00:47:05.023Z,10.20
2018-04-14T00:49:32.509Z,10.20
2018-04-14T00:52:00.001Z,10.20
2018-04-14T00:54:27.551Z,10.30
2018-04-14T00:56:55.053Z,10.30
2018-04-14T00:59:22.553Z,10.20
2018-04-14T01:01:50.825Z,10.20
2018-04-14T01:04:19.093Z,10.10
2018-04-14T01:06:46.616Z,10.10
2018-04-14T01:09:14.108Z,10.00
2018-04-14T01:11:41.598Z,9.90
2018-04-14T01:14:09.870Z,9.90
2018-04-14T01:16:37.362Z,9.80
2018-04-14T01:19:04.850Z,9.80
2018-04-14T01:21:32.346Z,9.70
2018-04-14T01:23:59.823Z,9.50
2018-04-14T01:26:27.328Z,9.50
2018-04-14T01:28:54.819Z,9.40
2018-04-14T01:31:22.317Z,9.40
2018-04-14T01:33:50.579Z,9.60
2018-04-14T01:36:18.069Z,9.60
2018-04-14T01:38:46.332Z,9.80
2018-04-14T01:41:13.837Z,9.80
2018-04-14T01:43:41.320Z,9.80
2018-04-14T01:46:08.813Z,9.70
2018-04-14T01:48:36.320Z,9.60
2018-04-14T01:51:03.817Z,9.70
2018-04-14T01:53:31.308Z,9.60
2018-04-14T01:55:58.809Z,9.40
2018-04-14T01:58:26.301Z,9.30
2018-04-14T02:00:53.790Z,9.40
2018-04-14T02:03:21.267Z,9.50
2018-04-14T02:05:49.517Z,9.30
2018-04-14T02:08:17.027Z,9.30
2018-04-14T02:10:44.527Z,9.30
2018-04-14T02:13:12.009Z,9.10
2018-04-14T02:15:39.497Z,9.00
2018-04-14T02:18:07.807Z,9.00
2018-04-14T02:20:35.323Z,9.00
2018-04-14T02:23:02.809Z,9.10
2018-04-14T02:25:31.054Z,9.20
2018-04-14T02:27:58.564Z,9.10
2018-04-14T02:30:26.817Z,9.00
2018-04-14T02:32:54.313Z,9.00
2018-04-14T02:35:22.573Z,8.90
2018-04-14T02:37:50.820Z,8.90
2018-04-14T02:40:18.322Z,8.90
2018-04-14T02:42:46.568Z,8.90
2018-04-14T02:45:14.048Z,8.90
2018-04-14T02:47:41.550Z,9.00
2018-04-14T02:50:09.063Z,9.10
2018-04-14T02:52:36.549Z,9.00
2018-04-14T02:55:04.834Z,8.80
2018-04-14T02:57:33.096Z,8.80
2018-04-14T03:00:00.583Z,8.80
2018-04-14T03:02:28.101Z,8.80
2018-04-14T03:04:55.592Z,8.70
2018-04-14T03:07:23.086Z,8.80
2018-04-14T03:09:50.589Z,8.90
2018-04-14T03:12:18.068Z,9.00
2018-04-14T03:14:45.561Z,9.00
2018-04-14T03:17:13.050Z,9.00
2018-04-14T03:19:40.529Z,8.90
2018-04-14T03:22:08.001Z,8.80
2018-04-14T03:24:35.473Z,8.70
2018-04-14T03:27:02.975Z,8.60
2018-04-14T03:29:30.485Z,8.60
2018-04-14T03:31:58.735Z,8.70
2018-04-14T03:34:26.217Z,8.70
2018-04-14T03:36:53.719Z,8.80
2018-04-14T03:39:21.212Z,8.80
2018-04-14T03:41:49.456Z,8.70
2018-04-14T03:44:16.947Z,8.70
2018-04-14T03:46:45.223Z,8.70
2018-04-14T03:49:13.505Z,8.60
2018-04-14T03:51:41.739Z,8.60
2018-04-14T03:54:09.239Z,8.60
2018-04-14T03:56:37.478Z,8.60
2018-04-14T03:59:05.025Z,8.60
2018-04-14T04:01:32.505Z,9.30
2018-04-14T04:03:59.987Z,9.70
2018-04-14T04:06:27.486Z,9.80
2018-04-14T04:08:55.003Z,9.70
2018-04-14T04:11:22.479Z,9.50
2018-04-14T04:13:49.958Z,9.30
2018-04-14T04:16:18.226Z,9.00
2018-04-14T04:18:57.512Z,9.00
2018-04-14T04:21:36.851Z,8.90
2018-04-14T04:24:16.158Z,9.00
2018-04-14T04:26:43.658Z,9.10
2018-04-14T04:29:11.148Z,9.00
2018-04-14T04:31:38.640Z,8.80
2018-04-14T04:34:06.155Z,8.60
2018-04-14T04:36:33.660Z,8.60
2018-04-14T04:39:01.918Z,8.60
2018-04-14T04:41:29.414Z,8.60
2018-04-14T04:43:56.892Z,8.70
2018-04-14T04:46:24.377Z,8.60
2018-04-14T04:48:51.871Z,8.40
2018-04-14T04:51:19.381Z,8.40
2018-04-14T04:53:46.880Z,8.40
2018-04-14T04:56:14.384Z,8.60
2018-04-14T04:58:42.627Z,8.70
2018-04-14T05:01:10.117Z,8.70
2018-04-14T05:03:38.362Z,8.80
2018-04-14T05:06:05.841Z,8.70
2018-04-14T05:08:33.341Z,8.80
2018-04-14T05:11:00.835Z,8.80
2018-04-14T05:13:29.073Z,8.90
2018-04-14T05:15:56.561Z,8.80
2018-04-14T05:18:24.068Z,8.80
2018-04-14T05:20:51.578Z,8.70
2018-04-14T05:23:19.080Z,8.80
2018-04-14T05:25:46.575Z,8.90
2018-04-14T05:28:14.851Z,8.80
2018-04-14T05:30:43.117Z,8.80
2018-04-14T05:33:10.608Z,8.80
2018-04-14T05:35:38.876Z,8.90
2018-04-14T05:38:07.127Z,9.00
2018-04-14T05:40:34.635Z,9.00
2018-04-14T05:43:02.888Z,9.00
2018-04-14T05:45:30.364Z,9.00
2018-04-14T05:47:58.626Z,8.90
2018-04-14T05:50:26.113Z,8.80
2018-04-14T05:52:54.360Z,8.90
2018-04-14T05:55:21.849Z,8.90
2018-04-14T05:57:50.102Z,9.00
2018-04-14T06:00:17.597Z,8.90
2018-04-14T06:02:45.843Z,9.10
2018-04-14T06:05:13.324Z,9.10
2018-04-14T06:07:40.813Z,9.30
2018-04-14T06:10:09.081Z,9.80
2018-04-14T06:12:37.338Z,9.90
2018-04-14T06:15:04.843Z,9.90
2018-04-14T06:17:32.339Z,10.00
2018-04-14T06:19:59.854Z,10.10
2018-04-14T06:22:28.104Z,10.30
2018-04-14T06:24:55.618Z,10.30
2018-04-14T06:27:23.183Z,10.40
2018-04-14T06:29:50.681Z,10.40
2018-04-14T06:32:18.192Z,10.60
2018-04-14T06:34:45.702Z,10.90
2018-04-14T06:37:13.197Z,11.20
2018-04-14T06:39:41.492Z,11.60
2018-04-14T06:42:09.770Z,11.90
2018-04-14T06:44:38.032Z,12.00
2018-04-14T06:47:05.551Z,12.00
2018-04-14T06:49:33.044Z,12.10
2018-04-14T06:52:00.531Z,12.20
2018-04-14T06:54:28.790Z,12.30
2018-04-14T06:56:56.307Z,12.30
2018-04-14T06:59:23.810Z,12.40
2018-04-14T07:01:51.321Z,12.40
2018-04-14T07:04:18.867Z,12.50
2018-04-14T07:06:46.339Z,12.60
2018-04-14T07:09:14.603Z,12.80
2018-04-14T07:11:42.861Z,12.90
2018-04-14T07:14:10.369Z,12.80
2018-04-14T07:16:37.877Z,12.80
2018-04-14T07:19:06.149Z,12.90
2018-04-14T07:21:33.654Z,12.90
2018-04-14T07:24:01.940Z,13.10
2018-04-14T07:26:30.188Z,13.10
2018-04-14T07:28:57.673Z,13.10
2018-04-14T07:31:25.175Z,13.00
2018-04-14T07:33:52.669Z,13.00
2018-04-14T07:36:20.185Z,13.10
2018-04-14T07:38:47.661Z,13.20
2018-04-14T07:41:15.169Z,13.40
2018-04-14T07:43:42.661Z,13.60
2018-04-14T07:46:10.919Z,13.80
2018-04-14T07:48:38.417Z,13.80
2018-04-14T07:51:05.911Z,13.90
2018-04-14T07:53:33.407Z,14.00
2018-04-14T07:56:00.911Z,14.10
2018-04-14T07:58:28.637Z,14.20
2018-04-14T08:00:56.147Z,14.30
2018-04-14T08:03:23.648Z,14.40
2018-04-14T08:05:51.155Z,14.40
2018-04-14T08:08:19.414Z,14.50
2018-04-14T08:10:46.912Z,14.50
2018-04-14T08:13:14.425Z,14.70
2018-04-14T08:15:41.925Z,14.90
2018-04-14T08:18:10.193Z,15.30
2018-04-14T08:20:38.483Z,15.40
2018-04-14T08:23:06.026Z,15.40
2018-04-14T08:25:34.283Z,15.50
2018-04-14T08:28:01.778Z,15.50
2018-04-14T08:30:30.049Z,15.50
2018-04-14T08:32:57.548Z,15.50
2018-04-14T08:35:25.033Z,15.60
2018-04-14T08:37:52.534Z,15.30
2018-04-14T08:40:20.049Z,15.50
2018-04-14T08:42:47.540Z,15.70
2018-04-14T08:45:15.034Z,15.80
2018-04-14T08:47:43.302Z,16.20
2018-04-14T08:50:10.813Z,16.20
2018-04-14T08:52:38.305Z,16.20
2018-04-14T08:55:05.791Z,16.20
2018-04-14T08:57:33.320Z,16.10
2018-04-14T09:00:00.843Z,16.10
2018-04-14T09:02:29.133Z,15.90
2018-04-14T09:04:56.649Z,15.90
2018-04-14T09:07:24.186Z,15.80
2018-04-14T09:09:51.716Z,15.80
2018-04-14T09:12:19.965Z,16.00
2018-04-14T09:14:47.466Z,16.00
2018-04-14T09:17:14.979Z,16.20
2018-04-14T09:19:42.697Z,16.30
2018-04-14T09:22:10.252Z,16.40
2018-04-14T09:24:38.522Z,16.40
2018-04-14T09:27:06.797Z,16.30
2018-04-14T09:29:35.070Z,16.30
2018-04-14T09:32:02.565Z,16.30
2018-04-14T09:34:30.048Z,16.40
2018-04-14T09:36:57.578Z,16.30
2018-04-14T09:39:25.821Z,16.40
2018-04-14T09:41:53.337Z,16.40
2018-04-14T09:44:20.836Z,16.50
2018-04-14T09:46:48.404Z,16.50
2018-04-14T09:49:15.879Z,16.50
2018-04-14T09:51:43.379Z,16.50
2018-04-14T09:54:11.637Z,16.70
2018-04-14T09:56:39.128Z,16.60
2018-04-14T09:59:07.397Z,16.90
2018-04-14T10:01:35.849Z,17.00
2018-04-14T10:04:03.376Z,16.90
2018-04-14T10:06:30.866Z,17.10
2018-04-14T10:08:58.364Z,17.20
2018-04-14T10:11:25.873Z,17.30
2018-04-14T10:13:53.379Z,17.30
2018-04-14T10:16:20.897Z,17.30
2018-04-14T10:18:48.398Z,17.40
2018-04-14T10:21:15.901Z,17.50
2018-04-14T10:23:43.395Z,17.50
2018-04-14T10:26:10.890Z,17.60
2018-04-14T10:28:39.191Z,17.60
2018-04-14T10:31:07.508Z,17.70
2018-04-14T10:33:35.006Z,17.70
2018-04-14T10:36:02.504Z,17.60
2018-04-14T10:38:30.783Z,17.90
2018-04-14T10:40:59.063Z,17.90
2018-04-14T10:43:27.336Z,17.90
2018-04-14T10:45:55.598Z,18.10
2018-04-14T10:48:23.100Z,18.10
2018-04-14T10:50:50.619Z,18.40
2018-04-14T10:53:18.113Z,18.60
2018-04-14T10:55:46.407Z,18.50
2018-04-14T10:58:14.655Z,18.50
2018-04-14T11:00:42.171Z,18.50
2018-04-14T11:03:09.672Z,18.50
2018-04-14T11:05:37.186Z,18.40
2018-04-14T11:08:04.681Z,18.50
2018-04-14T11:10:32.186Z,18.60
2018-04-14T11:13:00.465Z,18.90
2018-04-14T11:15:28.709Z,19.00
2018-04-14T11:17:56.969Z,19.20
2018-04-14T11:20:24.498Z,19.20
2018-04-14T11:22:51.979Z,19.30
2018-04-14T11:25:19.476Z,19.20
2018-04-14T11:27:46.982Z,19.40
2018-04-14T11:30:15.248Z,19.60
2018-04-14T11:32:42.728Z,19.60
2018-04-14T11:35:11.028Z,20.00
2018-04-14T11:37:38.508Z,20.00
2018-04-14T11:40:06.209Z,19.90
2018-04-14T11:42:33.706Z,19.90
2018-04-14T11:45:01.199Z,20.00
2018-04-14T11:47:28.698Z,19.80
2018-04-14T11:49:56.202Z,20.00
2018-04-14T11:52:23.708Z,20.10
2018-04-14T11:54:51.962Z,20.30
2018-04-14T11:57:19.478Z,20.30
2018-04-14T11:59:46.970Z,20.40
2018-04-14T12:02:14.519Z,20.40
2018-04-14T12:04:42.785Z,20.30
2018-04-14T12:07:10.263Z,20.30
2018-04-14T12:09:38.525Z,20.60
2018-04-14T12:12:06.793Z,20.70
2018-04-14T12:14:34.291Z,20.70
2018-04-14T12:17:01.805Z,20.80
2018-04-14T12:19:29.314Z,20.70
2018-04-14T12:21:57.592Z,20.80
2018-04-14T12:24:25.872Z,20.70
2018-04-14T12:26:53.357Z,20.60
2018-04-14T12:29:20.851Z,20.50
2018-04-14T12:31:48.357Z,20.40
2018-04-14T12:34:16.617Z,20.00
2018-04-14T12:36:44.103Z,20.00
2018-04-14T12:39:12.359Z,20.00
2018-04-14T12:41:39.862Z,19.90
2018-04-14T12:44:07.373Z,19.90
2018-04-14T12:46:34.907Z,19.80
2018-04-14T12:49:02.409Z,19.60
2018-04-14T12:51:31.413Z,19.50
2018-04-14T12:53:58.908Z,19.50
2018-04-14T12:56:26.428Z,19.60
2018-04-14T12:58:53.937Z,19.50
2018-04-14T13:01:21.444Z,19.60
2018-04-14T13:03:48.944Z,19.80
2018-04-14T13:06:17.209Z,20.00
2018-04-14T13:08:44.721Z,19.90
2018-04-14T13:11:12.234Z,19.90
2018-04-14T13:13:40.515Z,19.90
2018-04-14T13:16:08.012Z,19.90
2018-04-14T13:18:35.536Z,20.00
2018-04-14T13:21:03.063Z,20.10
2018-04-14T13:23:30.574Z,20.10
2018-04-14T13:25:58.865Z,20.60
2018-04-14T13:28:27.170Z,20.70
2018-04-14T13:30:54.668Z,20.60
2018-04-14T13:33:22.156Z,20.60
2018-04-14T13:35:49.648Z,20.30
2018-04-14T13:38:17.144Z,20.30
2018-04-14T13:40:44.650Z,20.40
2018-04-14T13:43:12.926Z,20.90
2018-04-14T13:45:40.408Z,20.90
2018-04-14T13:48:08.671Z,20.90
2018-04-14T13:50:36.186Z,20.80
2018-04-14T13:53:03.671Z,21.00
2018-04-14T13:55:31.161Z,21.50
2018-04-14T13:57:59.425Z,21.40
2018-04-14T14:00:26.938Z,21.40
2018-04-14T14:02:54.462Z,21.10
2018-04-14T14:05:22.000Z,21.00
2018-04-14T14:07:49.494Z,21.20
2018-04-14T14:10:17.754Z,21.50
2018-04-14T14:12:45.291Z,21.50
2018-04-14T14:15:12.781Z,21.60
2018-04-14T14:17:40.283Z,21.60
2018-04-14T14:20:07.800Z,21.60
2018-04-14T14:22:35.305Z,21.80
2018-04-14T14:25:03.596Z,22.10
2018-04-14T14:27:31.095Z,22.10
2018-04-14T14:29:58.595Z,22.20
2018-04-14T14:32:27.162Z,22.10
2018-04-14T14:34:54.661Z,22.10
2018-04-14T14:37:22.173Z,22.20
2018-04-14T14:39:49.661Z,22.30
2018-04-14T14:42:17.167Z,22.80
2018-04-14T14:44:44.669Z,23.40
2018-04-14T14:47:12.931Z,24.50
2018-04-14T14:49:40.462Z,24.40
2018-04-14T14:52:07.985Z,24.40
2018-04-14T14:54:36.408Z,24.40
2018-04-14T14:57:03.909Z,24.00
2018-04-14T14:59:31.444Z,23.70
2018-04-14T15:01:58.986Z,23.40
2018-04-14T15:04:27.263Z,23.10
2018-04-14T15:06:55.538Z,23.40
2018-04-14T15:09:23.811Z,23.20
2018-04-14T15:11:51.330Z,23.20
2018-04-14T15:14:18.844Z,22.90
2018-04-14T15:16:47.106Z,22.10
2018-04-14T15:19:14.632Z,22.10
2018-04-14T15:21:42.139Z,21.60
2018-04-14T15:24:09.639Z,21.10
2018-04-14T15:26:37.159Z,21.00
2018-04-14T15:29:04.703Z,20.70
2018-04-14T15:31:33.015Z,20.80
2018-04-14T15:34:00.511Z,20.80
2018-04-14T15:36:28.040Z,20.90
2018-04-14T15:38:55.559Z,20.80
2018-04-14T15:41:23.105Z,20.70
2018-04-14T15:43:50.620Z,20.60
2018-04-14T15:46:18.131Z,20.50
2018-04-14T15:48:45.661Z,20.30
2018-04-14T15:51:13.952Z,20.30
2018-04-14T15:53:42.223Z,20.10
2018-04-14T15:56:10.479Z,19.90
2018-04-14T15:58:37.997Z,19.90
2018-04-14T16:01:05.513Z,19.70
2018-04-14T16:03:33.008Z,19.40
2018-04-14T16:06:01.278Z,18.90
2018-04-14T16:08:29.573Z,18.80
2018-04-14T16:10:57.065Z,18.80
2018-04-14T16:13:24.588Z,18.80
2018-04-14T16:15:52.095Z,18.70
2018-04-14T16:18:19.604Z,18.50
2018-04-14T16:20:47.869Z,18.50
2018-04-14T16:23:15.368Z,18.50
2018-04-14T16:25:42.859Z,18.40
2018-04-14T16:28:10.345Z,18.30
2018-04-14T16:30:37.856Z,18.10
2018-04-14T16:33:05.356Z,18.00
2018-04-14T16:35:32.836Z,18.00
2018-04-14T16:38:00.351Z,18.10
2018-04-14T16:40:27.835Z,18.10
2018-04-14T16:42:55.335Z,18.10
2018-04-14T16:45:22.837Z,17.90
2018-04-14T16:47:50.329Z,17.90
2018-04-14T16:50:17.817Z,17.90
2018-04-14T16:52:45.321Z,17.80
2018-04-14T16:55:12.819Z,17.70
2018-04-14T16:57:40.329Z,17.80
2018-04-14T17:00:08.590Z,17.90
2018-04-14T17:02:36.114Z,17.80
2018-04-14T17:05:03.631Z,17.70
2018-04-14T17:07:31.137Z,17.60
2018-04-14T17:09:58.628Z,17.50
2018-04-14T17:12:26.137Z,17.40
2018-04-14T17:14:54.396Z,17.20
2018-04-14T17:17:21.892Z,17.20
2018-04-14T17:19:49.456Z,17.00
2018-04-14T17:22:16.970Z,16.90
2018-04-14T17:24:44.457Z,16.80
2018-04-14T17:27:12.715Z,16.60
2018-04-14T17:29:40.225Z,16.60
2018-04-14T17:32:07.732Z,16.50
2018-04-14T17:34:35.254Z,16.50
2018-04-14T17:37:02.742Z,16.50
2018-04-14T17:39:30.239Z,16.50
2018-04-14T17:41:57.754Z,16.50
2018-04-14T17:44:25.326Z,16.50
2018-04-14T17:46:52.739Z,16.40
2018-04-14T17:49:20.247Z,16.40
2018-04-14T17:51:47.756Z,16.30
2018-04-14T17:54:15.244Z,16.20
2018-04-14T17:56:43.506Z,16.20
2018-04-14T17:59:11.006Z,16.10
2018-04-14T18:01:38.534Z,16.10
2018-04-14T18:04:06.810Z,15.90
2018-04-14T18:06:34.292Z,15.90
2018-04-14T18:09:01.801Z,15.80
2018-04-14T18:11:29.322Z,15.60
2018-04-14T18:13:56.830Z,15.50
2018-04-14T18:16:24.366Z,15.60
2018-04-14T18:18:51.864Z,15.60
2018-04-14T18:21:19.356Z,15.50
2018-04-14T18:23:46.883Z,15.40
2018-04-14T18:26:14.390Z,15.30
2018-04-14T18:28:42.640Z,15.10
2018-04-14T18:31:10.130Z,15.10
2018-04-14T18:33:38.400Z,15.00
2018-04-14T18:36:05.896Z,14.90
2018-04-14T18:38:33.404Z,14.90
2018-04-14T18:41:00.902Z,14.80
2018-04-14T18:43:29.178Z,14.60
2018-04-14T18:45:57.448Z,14.50
2018-04-14T18:48:24.959Z,14.50
2018-04-14T18:50:52.498Z,14.50
2018-04-14T18:53:19.979Z,14.50
2018-04-14T18:55:47.463Z,14.60
2018-04-14T18:58:14.965Z,14.60
2018-04-14T19:00:42.469Z,14.60
2018-04-14T19:03:09.986Z,14.50
2018-04-14T19:05:38.250Z,14.30
2018-04-14T19:08:05.736Z,14.30
2018-04-14T19:10:34.009Z,14.50
2018-04-14T19:13:01.521Z,14.40
2018-04-14T19:15:29.008Z,14.30
2018-04-14T19:17:56.499Z,14.20
2018-04-14T19:20:24.001Z,14.10
2018-04-14T19:22:51.502Z,14.10
2018-04-14T19:25:19.756Z,13.80
2018-04-14T19:27:47.297Z,13.80
2018-04-14T19:30:15.545Z,13.60
2018-04-14T19:32:43.038Z,13.60
2018-04-14T19:35:10.551Z,13.50
2018-04-14T19:37:38.053Z,13.60
2018-04-14T19:40:05.573Z,13.60
2018-04-14T19:42:33.096Z,13.70
2018-04-14T19:45:00.573Z,13.70
2018-04-14T19:47:28.070Z,13.70
2018-04-14T19:49:55.547Z,13.70
2018-04-14T19:52:23.046Z,13.70
2018-04-14T19:54:50.532Z,13.60
2018-04-14T19:57:18.025Z,13.50
2018-04-14T19:59:45.534Z,13.50
2018-04-14T20:02:13.805Z,13.40
2018-04-14T20:04:41.306Z,13.40
2018-04-14T20:07:08.808Z,13.30
2018-04-14T20:09:36.303Z,13.20
2018-04-14T20:12:03.832Z,13.20
2018-04-14T20:14:31.332Z,13.20
2018-04-14T20:16:58.819Z,13.20
2018-04-14T20:19:26.350Z,13.20
2018-04-14T20:21:54.080Z,13.20
2018-04-14T20:24:21.582Z,13.10
2018-04-14T20:26:49.075Z,13.10
2018-04-14T20:29:16.574Z,13.00
2018-04-14T20:31:44.079Z,13.00
2018-04-14T20:34:11.610Z,13.10
2018-04-14T20:36:39.102Z,13.10
2018-04-14T20:39:06.609Z,13.10
2018-04-14T20:41:34.142Z,13.00
2018-04-14T20:44:01.651Z,13.00
2018-04-14T20:46:29.153Z,12.80
2018-04-14T20:48:56.644Z,12.80
2018-04-14T20:51:24.145Z,12.90
2018-04-14T20:53:51.669Z,12.80
2018-04-14T20:56:19.168Z,12.60
2018-04-14T20:58:46.662Z,12.40
2018-04-14T21:01:14.923Z,12.30
2018-04-14T21:03:43.187Z,12.20
2018-04-14T21:06:10.708Z,12.20
2018-04-14T21:08:38.192Z,12.10
2018-04-14T21:11:05.736Z,12.00
2018-04-14T21:13:33.245Z,12.00
2018-04-14T21:16:00.721Z,12.10
2018-04-14T21:18:28.228Z,12.00
2018-04-14T21:20:55.978Z,11.80
2018-04-14T21:23:23.489Z,11.70
2018-04-14T21:25:50.996Z,11.70
2018-04-14T21:28:18.491Z,11.80
2018-04-14T21:30:45.993Z,11.80
2018-04-14T21:33:13.501Z,11.80
2018-04-14T21:35:40.997Z,11.80
2018-04-14T21:38:08.485Z,11.80
2018-04-14T21:40:35.991Z,11.80
2018-04-14T21:43:03.505Z,11.80
2018-04-14T21:45:30.995Z,11.70
2018-04-14T21:47:59.275Z,11.50
2018-04-14T21:50:27.535Z,11.50
2018-04-14T21:52:55.032Z,11.50
2018-04-14T21:55:22.553Z,11.50
2018-04-14T21:57:50.051Z,11.40
2018-04-14T22:00:17.565Z,11.40
2018-04-14T22:02:45.083Z,11.30
2018-04-14T22:05:12.586Z,11.20
2018-04-14T22:07:40.101Z,11.20
2018-04-14T22:10:07.578Z,11.20
2018-04-14T22:12:35.119Z,11.20
2018-04-14T22:15:02.630Z,11.10
2018-04-14T22:17:30.137Z,11.20
2018-04-14T22:19:58.393Z,11.30
2018-04-14T22:22:25.903Z,11.30
2018-04-14T22:24:53.399Z,11.30
2018-04-14T22:27:20.887Z,11.20
2018-04-14T22:29:49.154Z,11.20
2018-04-14T22:32:16.660Z,11.10
2018-04-14T22:34:44.924Z,10.90
2018-04-14T22:37:12.415Z,10.90
2018-04-14T22:39:39.925Z,10.90
2018-04-14T22:42:07.413Z,10.90
2018-04-14T22:44:35.712Z,10.80
2018-04-14T22:47:03.200Z,10.80
2018-04-14T22:49:30.701Z,10.80
2018-04-14T22:51:58.193Z,10.80
2018-04-14T22:54:26.646Z,10.70
2018-04-14T22:56:54.149Z,10.70
2018-04-14T22:59:21.661Z,10.60
2018-04-14T23:01:49.144Z,10.60
2018-04-14T23:04:16.648Z,10.60
2018-04-14T23:06:44.133Z,10.60
2018-04-14T23:09:11.655Z,10.50
2018-04-14T23:11:39.924Z,10.60
2018-04-14T23:14:08.194Z,10.60
2018-04-14T23:16:35.672Z,10.50
2018-04-14T23:19:03.175Z,10.50
2018-04-14T23:21:30.661Z,10.60
2018-04-14T23:23:58.165Z,10.60
2018-04-14T23:26:26.419Z,10.70
2018-04-14T23:28:53.904Z,10.70
2018-04-14T23:31:22.184Z,10.50
2018-04-14T23:33:50.503Z,10.50
2018-04-14T23:36:17.980Z,10.50
2018-04-14T23:38:46.245Z,10.50
2018-04-14T23:41:13.751Z,10.40
2018-04-14T23:43:41.245Z,10.40
2018-04-14T23:46:08.733Z,10.40
2018-04-14T23:48:36.221Z,10.50
2018-04-14T23:51:03.713Z,10.40
2018-04-14T23:53:32.016Z,10.20
2018-04-14T23:55:59.532Z,10.20
2018-04-14T23:58:27.017Z,10.10
